Time;durP1;ratioP1;P1;durP2;ratioP2;P2;SDS_P1;SDS_P2;PMS_P1;PMS_P2;Temp;Humidity;BMP_temperature;BMP_pressure;BME280_temperature;BME280_humidity;BME280_pressure;Samples;Min_cycle;Max_cycle;Signal;HPM_P1;HPM_P2
2023/01/20 00:02:07;;;;;;;;;19.00;19.00;;;;;3.66;74.29;100676.69;5088180;27;45459;-61
2023/01/20 00:04:32;;;;;;;;;17.25;16.25;;;;;3.64;74.33;100686.84;5072509;28;45429;-62
2023/01/20 00:06:58;;;;;;;;;24.00;21.25;;;;;3.58;73.75;100698.38;5070398;28;46092;-61
2023/01/20 00:09:23;;;;;;;;;23.25;20.00;;;;;3.50;74.33;100701.09;5066779;28;45528;-59
2023/01/20 00:11:49;;;;;;;;;23.00;21.00;;;;;3.48;74.42;100700.41;5050570;28;45362;-62
2023/01/20 00:14:15;;;;;;;;;28.25;21.50;;;;;3.48;74.07;100701.25;5050910;28;45927;-62
2023/01/20 00:16:40;;;;;;;;;28.75;20.50;;;;;3.55;74.10;100708.72;5049831;28;46424;-62
2023/01/20 00:19:06;;;;;;;;;21.00;16.50;;;;;3.55;74.42;100698.72;5055093;28;45409;-61
2023/01/20 00:21:33;;;;;;;;;26.25;19.75;;;;;3.49;74.01;100694.81;5072142;28;45579;-62
2023/01/20 00:23:59;;;;;;;;;26.00;20.40;;;;;3.56;74.10;100716.72;5055119;28;45503;-61
2023/01/20 00:26:24;;;;;;;;;22.00;21.00;;;;;3.38;73.40;100697.84;5031372;28;45444;-59
2023/01/20 00:28:52;;;;;;;;;21.25;19.75;;;;;3.52;73.68;100723.47;5013719;28;45452;-60
2023/01/20 00:31:29;;;;;;;;;25.60;21.80;;;;;3.23;73.30;100684.06;5042861;28;45706;-61
2023/01/20 00:33:56;;;;;;;;;19.20;18.40;;;;;3.49;73.53;100727.41;5072318;28;45433;-62
2023/01/20 00:36:22;;;;;;;;;25.00;20.60;;;;;3.46;73.44;100732.31;5038049;27;45932;-62
2023/01/20 00:38:48;;;;;;;;;17.00;13.80;;;;;3.37;73.18;100721.41;5051695;28;45459;-62
2023/01/20 00:41:13;;;;;;;;;16.75;16.75;;;;;3.27;73.44;100709.84;5033870;28;45447;-62
2023/01/20 00:43:39;;;;;;;;;26.25;23.00;;;;;3.41;73.62;100738.19;5032647;27;45373;-61
2023/01/20 00:46:04;;;;;;;;;19.50;18.25;;;;;3.38;73.32;100739.38;5031190;28;45875;-61
2023/01/20 00:48:30;;;;;;;;;23.25;16.00;;;;;3.39;73.02;100751.09;4997073;28;45932;-61
2023/01/20 00:50:55;;;;;;;;;26.75;18.75;;;;;3.37;73.68;100748.53;5031525;28;45481;-61
2023/01/20 00:53:21;;;;;;;;;29.75;18.00;;;;;3.29;73.45;100748.50;5031895;28;45348;-61
2023/01/20 00:55:46;;;;;;;;;23.75;18.75;;;;;3.29;73.87;100745.81;5029659;28;45631;-61
2023/01/20 00:58:12;;;;;;;;;21.50;17.25;;;;;3.34;73.42;100750.72;5031029;28;45413;-61
2023/01/20 01:00:37;;;;;;;;;23.75;19.75;;;;;3.30;73.59;100750.22;5031815;28;45472;-61
2023/01/20 01:03:04;;;;;;;;;25.00;24.75;;;;;3.28;74.00;100748.66;5031220;28;45399;-60
2023/01/20 01:05:30;;;;;;;;;25.60;21.60;;;;;3.08;73.53;100719.97;5031043;28;46510;-61
2023/01/20 01:07:55;;;;;;;;;27.50;18.75;;;;;3.25;73.32;100752.56;5029551;28;45448;-61
2023/01/20 01:10:21;;;;;;;;;24.50;18.50;;;;;3.24;73.22;100753.56;5031331;28;45470;-62
2023/01/20 01:12:46;;;;;;;;;14.00;12.00;;;;;3.20;73.75;100752.22;5031234;28;45374;-61
2023/01/20 01:15:12;;;;;;;;;20.50;16.50;;;;;3.14;73.26;100759.13;5030783;28;45436;-61
2023/01/20 01:17:37;;;;;;;;;24.50;17.25;;;;;2.48;73.68;100667.47;4996509;28;45489;-61
2023/01/20 01:20:03;;;;;;;;;31.00;22.25;;;;;3.06;73.74;100769.94;4995701;28;45440;-61
2023/01/20 01:22:30;;;;;;;;;13.20;13.20;;;;;3.07;73.56;100767.09;5013362;28;45469;-61
2023/01/20 01:24:56;;;;;;;;;18.20;16.20;;;;;3.04;73.59;100761.13;5030560;28;46745;-61
2023/01/20 01:27:21;;;;;;;;;24.25;17.50;;;;;3.07;73.65;100777.94;5030013;28;45478;-61
2023/01/20 01:29:47;;;;;;;;;22.25;22.25;;;;;2.94;73.60;100767.50;5012825;28;45486;-61
2023/01/20 01:32:13;;;;;;;;;22.00;19.00;;;;;2.82;74.08;100755.22;5016017;28;45431;-61
2023/01/20 01:34:38;;;;;;;;;23.75;20.00;;;;;2.95;74.04;100765.66;5034318;28;46126;-60
2023/01/20 01:37:04;;;;;;;;;28.00;20.75;;;;;3.14;73.89;100802.53;5034626;28;45331;-60
2023/01/20 01:39:29;;;;;;;;;23.50;18.00;;;;;3.15;73.70;100814.25;5034843;28;45357;-61
2023/01/20 01:41:55;;;;;;;;;22.00;19.50;;;;;3.10;73.84;100803.88;5031164;28;45355;-62
2023/01/20 01:44:20;;;;;;;;;25.75;20.50;;;;;3.17;73.62;100810.34;5004847;28;45920;-61
2023/01/20 01:46:46;;;;;;;;;25.50;21.00;;;;;2.73;73.71;100738.09;5014979;28;45392;-61
2023/01/20 01:49:18;;;;;;;;;25.00;20.25;;;;;3.10;74.07;100812.00;4997140;28;45453;-60
2023/01/20 01:51:51;;;;;;;;;25.40;22.00;;;;;3.09;74.15;100807.56;4997564;28;45344;-60
2023/01/20 01:54:19;;;;;;;;;25.00;19.20;;;;;3.20;73.42;100823.59;4997121;28;45448;-61
2023/01/20 01:56:45;;;;;;;;;27.60;20.80;;;;;3.19;73.77;100815.59;5013757;28;45485;-60
2023/01/20 01:59:11;;;;;;;;;32.25;24.75;;;;;3.21;73.87;100825.28;5003516;28;45338;-59
2023/01/20 02:01:38;;;;;;;;;30.40;25.80;;;;;2.70;73.90;100741.97;5049318;28;45452;-59
2023/01/20 02:04:09;;;;;;;;;27.80;25.80;;;;;3.23;73.86;100826.00;5032496;28;45560;-59
2023/01/20 02:06:35;;;;;;;;;32.80;26.00;;;;;3.22;74.21;100823.44;5017628;28;45760;-60
2023/01/20 02:09:01;;;;;;;;;28.00;23.80;;;;;3.19;74.24;100821.88;5049884;28;45403;-59
2023/01/20 02:11:28;;;;;;;;;33.80;26.40;;;;;3.27;74.12;100828.38;5016829;28;45526;-59
2023/01/20 02:13:54;;;;;;;;;28.80;27.60;;;;;2.72;74.27;100741.78;5049679;28;45448;-59
2023/01/20 02:16:34;;;;;;;;;32.50;27.00;;;;;3.17;74.01;100826.63;5033127;28;45415;-59
2023/01/20 02:19:40;;;;;;;;;34.20;28.20;;;;;3.26;74.43;100838.38;5049385;28;45495;-58
2023/01/20 02:22:20;;;;;;;;;21.00;16.80;;;;;3.28;74.36;100839.06;5001119;28;45546;-59
2023/01/20 02:24:52;;;;;;;;;31.00;29.00;;;;;3.20;74.02;100842.56;5037252;28;46807;-59
2023/01/20 02:27:50;;;;;;;;;29.60;25.60;;;;;3.23;73.89;100847.69;5037697;28;45490;-59
2023/01/20 02:30:26;;;;;;;;;29.60;26.20;;;;;3.18;74.51;100838.31;4977923;28;45477;-59
2023/01/20 02:32:56;;;;;;;;;32.40;24.20;;;;;3.24;74.44;100848.53;5004188;28;45590;-60
2023/01/20 02:35:38;;;;;;;;;34.00;33.40;;;;;3.20;74.25;100849.88;5019335;28;45693;-59
2023/01/20 02:38:30;;;;;;;;;22.00;20.80;;;;;3.22;74.66;100872.25;5035744;28;45454;-59
2023/01/20 02:41:03;;;;;;;;;35.60;24.60;;;;;3.06;74.39;100857.59;5033693;28;45845;-59
2023/01/20 02:43:35;;;;;;;;;25.60;22.40;;;;;3.13;74.43;100865.94;5036530;28;45357;-59
2023/01/20 02:46:35;;;;;;;;;26.80;25.40;;;;;3.09;74.28;100859.09;5033567;28;45476;-59
2023/01/20 02:49:24;;;;;;;;;25.60;22.80;;;;;3.15;74.24;100871.19;5020463;28;45511;-59
2023/01/20 02:52:09;;;;;;;;;25.80;23.00;;;;;3.12;74.59;100864.22;5024544;28;45421;-58
2023/01/20 02:54:35;;;;;;;;;29.00;20.20;;;;;3.07;74.31;100864.72;5004522;28;45460;-59
2023/01/20 02:57:01;;;;;;;;;30.00;24.00;;;;;3.15;74.14;100882.88;5018259;28;45526;-59
2023/01/20 02:59:29;;;;;;;;;29.00;23.00;;;;;3.11;74.04;100882.34;5052855;28;45493;-59
2023/01/20 03:02:19;;;;;;;;;32.20;21.80;;;;;3.14;74.31;100891.19;5019385;28;45300;-59
2023/01/20 03:04:47;;;;;;;;;20.80;19.00;;;;;3.13;74.50;100884.09;5019436;28;45332;-58
2023/01/20 03:07:12;;;;;;;;;30.00;23.60;;;;;3.07;74.60;100886.41;5018665;28;45897;-58
2023/01/20 03:09:40;;;;;;;;;27.50;23.00;;;;;3.11;74.75;100884.22;5019064;28;45437;-59
2023/01/20 03:12:10;;;;;;;;;27.80;23.20;;;;;3.12;74.89;100883.22;5036959;28;45527;-59
2023/01/20 03:14:36;;;;;;;;;26.20;19.80;;;;;3.10;74.52;100896.94;5052707;28;45504;-59
2023/01/20 03:17:01;;;;;;;;;26.25;23.00;;;;;2.86;74.94;100867.78;5018796;28;45651;-61
2023/01/20 03:19:27;;;;;;;;;24.50;20.25;;;;;3.10;74.60;100913.19;5052281;28;45909;-59
2023/01/20 03:21:52;;;;;;;;;20.75;19.00;;;;;2.90;74.54;100873.75;5019484;28;45375;-59
2023/01/20 03:24:18;;;;;;;;;21.00;17.50;;;;;3.10;74.38;100921.34;5036795;28;45529;-58
2023/01/20 03:26:43;;;;;;;;;17.75;14.00;;;;;3.06;73.96;100916.41;5018801;28;45407;-59
2023/01/20 03:29:14;;;;;;;;;16.75;13.75;;;;;3.12;74.45;100921.19;5002025;28;45419;-58
2023/01/20 03:31:49;;;;;;;;;25.40;21.20;;;;;3.10;74.39;100921.34;5037057;28;45326;-58
2023/01/20 03:34:16;;;;;;;;;27.80;20.60;;;;;2.74;74.48;100867.19;5002332;28;45394;-58
2023/01/20 03:36:42;;;;;;;;;29.60;19.60;;;;;2.28;74.12;100794.16;5018911;28;46221;-62
2023/01/20 03:39:07;;;;;;;;;23.75;19.50;;;;;3.05;74.43;100925.53;5036255;28;45453;-56
2023/01/20 03:41:39;;;;;;;;;23.00;20.00;;;;;3.04;74.13;100930.09;5036386;28;45441;-61
2023/01/20 03:44:34;;;;;;;;;20.80;19.60;;;;;2.97;74.25;100935.31;5036701;28;45262;-59
2023/01/20 03:47:09;;;;;;;;;30.40;21.00;;;;;2.94;74.25;100934.78;5036226;28;46936;-58
2023/01/20 03:49:43;;;;;;;;;25.80;23.60;;;;;2.97;73.83;100937.19;5018222;28;45427;-59
2023/01/20 03:52:12;;;;;;;;;26.20;17.60;;;;;2.93;74.53;100941.22;5052155;28;45412;-58
2023/01/20 03:54:51;;;;;;;;;24.20;19.60;;;;;2.78;74.15;100949.88;5036224;28;45496;-59
2023/01/20 03:57:18;;;;;;;;;13.20;12.80;;;;;2.75;74.54;100952.06;5036140;28;45921;-59
2023/01/20 03:59:44;;;;;;;;;23.40;17.00;;;;;2.63;74.75;100913.50;5034969;28;45408;-59
2023/01/20 04:02:09;;;;;;;;;19.50;16.50;;;;;2.72;74.59;100923.41;5018619;28;45464;-58
2023/01/20 04:04:36;;;;;;;;;21.25;15.50;;;;;2.82;73.86;100942.28;5034957;28;45316;-58
2023/01/20 04:07:06;;;;;;;;;23.00;15.20;;;;;2.89;74.40;100943.41;5034885;28;45661;-58
2023/01/20 04:09:33;;;;;;;;;26.60;20.40;;;;;2.73;74.47;100922.41;5034667;28;45603;-58
2023/01/20 04:11:59;;;;;;;;;20.20;17.40;;;;;2.52;74.80;100915.44;5052007;28;45468;-57
2023/01/20 04:14:24;;;;;;;;;23.25;19.50;;;;;2.81;74.72;100952.31;5027633;28;45346;-58
2023/01/20 04:16:51;;;;;;;;;20.00;15.25;;;;;2.90;74.50;100960.50;5030741;28;45873;-59
2023/01/20 04:19:17;;;;;;;;;15.20;13.40;;;;;2.92;74.30;100963.91;5034840;28;45394;-58
2023/01/20 04:21:44;;;;;;;;;22.00;16.00;;;;;2.94;74.08;100968.16;5017067;28;45306;-58
2023/01/20 04:24:20;;;;;;;;;14.80;14.80;;;;;2.74;74.16;100951.22;5016870;28;45519;-58
2023/01/20 04:26:46;;;;;;;;;24.20;18.00;;;;;2.88;74.07;100978.78;5017342;28;45728;-59
2023/01/20 04:29:11;;;;;;;;;16.75;15.50;;;;;2.84;73.99;100973.66;5034016;28;45435;-58
2023/01/20 04:31:37;;;;;;;;;20.50;17.25;;;;;2.91;74.19;100982.03;5031073;28;45272;-58
2023/01/20 04:34:03;;;;;;;;;19.25;16.50;;;;;2.92;73.95;100978.31;5035873;28;45391;-58
2023/01/20 04:36:28;;;;;;;;;17.20;16.20;;;;;2.72;73.76;100985.75;5035498;28;46351;-58
2023/01/20 04:38:54;;;;;;;;;21.75;16.00;;;;;2.71;74.19;100982.19;5035451;28;45410;-59
2023/01/20 04:41:20;;;;;;;;;19.00;17.50;;;;;2.62;74.38;100968.72;5035831;28;45841;-57
2023/01/20 04:43:45;;;;;;;;;20.00;18.00;;;;;2.64;74.14;100991.97;5035170;28;45533;-59
2023/01/20 04:46:14;;;;;;;;;20.75;17.00;;;;;1.99;74.32;100893.56;5034925;28;46360;-58
2023/01/20 04:48:40;;;;;;;;;19.80;19.40;;;;;2.50;74.34;100982.47;5050987;28;45417;-60
2023/01/20 04:51:06;;;;;;;;;19.75;16.00;;;;;2.29;74.39;100956.53;5034513;28;45459;-57
2023/01/20 04:53:31;;;;;;;;;24.40;22.00;;;;;2.57;74.20;101013.38;5035831;28;45528;-59
2023/01/20 04:55:57;;;;;;;;;21.25;19.75;;;;;2.57;74.26;101005.25;5035086;28;46292;-61
2023/01/20 04:58:23;;;;;;;;;17.75;16.50;;;;;2.46;74.32;101008.19;5051199;28;45789;-59
2023/01/20 05:00:48;;;;;;;;;18.75;16.50;;;;;2.47;74.42;101011.75;5050892;28;45406;-59
2023/01/20 05:03:13;;;;;;;;;18.75;16.25;;;;;2.54;74.25;101010.13;5035693;28;45344;-58
2023/01/20 05:05:39;;;;;;;;;24.50;20.50;;;;;2.57;74.04;101007.13;5035345;28;46055;-58
2023/01/20 05:08:05;;;;;;;;;23.00;18.25;;;;;2.61;74.16;101021.22;5035936;28;45670;-59
2023/01/20 05:10:33;;;;;;;;;27.50;20.50;;;;;2.57;73.90;101009.84;5035563;28;45348;-58
2023/01/20 05:12:59;;;;;;;;;22.60;20.00;;;;;2.37;74.28;100985.56;5050878;28;45327;-58
2023/01/20 05:15:24;;;;;;;;;28.00;22.75;;;;;2.49;73.97;101016.00;5035068;28;45358;-58
2023/01/20 05:17:50;;;;;;;;;22.00;18.75;;;;;2.57;74.14;101026.94;5035165;28;45439;-58
2023/01/20 05:20:17;;;;;;;;;22.75;21.75;;;;;2.62;74.00;101028.34;5050694;28;45343;-59
2023/01/20 05:22:43;;;;;;;;;26.60;20.20;;;;;2.62;73.94;101029.19;5017434;28;45534;-57
2023/01/20 05:25:08;;;;;;;;;24.25;17.25;;;;;2.65;73.69;101030.75;5034982;28;46222;-58
2023/01/20 05:27:34;;;;;;;;;26.00;23.75;;;;;2.67;73.41;101042.31;5033927;28;45427;-58
2023/01/20 05:30:00;;;;;;;;;32.25;23.25;;;;;2.60;73.73;101039.34;5033398;28;45283;-59
2023/01/20 05:32:25;;;;;;;;;24.25;21.75;;;;;2.56;73.54;101030.66;5034277;28;45590;-59
2023/01/20 05:34:51;;;;;;;;;30.50;24.75;;;;;2.55;73.34;101045.22;5013040;28;46025;-61
2023/01/20 05:37:17;;;;;;;;;30.00;26.00;;;;;2.57;73.77;101042.34;5033744;28;45860;-60
2023/01/20 05:39:42;;;;;;;;;28.20;23.00;;;;;2.42;73.45;101032.00;5035199;28;45362;-58
2023/01/20 05:42:08;;;;;;;;;27.00;21.75;;;;;2.49;73.78;101036.81;5034999;28;45268;-57
2023/01/20 05:44:34;;;;;;;;;27.50;23.50;;;;;2.52;73.91;101047.38;5034460;28;45957;-59
2023/01/20 05:47:01;;;;;;;;;32.60;26.40;;;;;2.55;73.33;101052.47;5034644;28;45316;-58
2023/01/20 05:49:26;;;;;;;;;33.20;25.00;;;;;2.37;73.88;101031.63;5033898;28;45300;-58
2023/01/20 05:51:52;;;;;;;;;29.50;23.00;;;;;2.49;73.60;101053.94;5017140;28;45929;-55
2023/01/20 05:54:18;;;;;;;;;28.25;22.25;;;;;2.51;73.62;101051.94;5016350;28;46148;-58
2023/01/20 05:56:43;;;;;;;;;33.25;29.75;;;;;2.53;73.60;101062.63;5019905;28;45287;-59
2023/01/20 05:59:09;;;;;;;;;34.00;23.50;;;;;2.51;73.50;101059.22;5020112;28;45439;-59
2023/01/20 06:01:35;;;;;;;;;32.75;26.25;;;;;1.80;73.48;100950.53;5038069;28;45809;-58
2023/01/20 06:04:00;;;;;;;;;28.75;27.25;;;;;2.54;73.76;101065.19;5037626;28;46505;-58
2023/01/20 06:06:25;;;;;;;;;35.75;29.25;;;;;2.53;73.38;101066.19;5019981;28;45470;-58
2023/01/20 06:08:52;;;;;;;;;27.50;22.50;;;;;2.58;73.21;101073.88;5053765;28;45410;-58
2023/01/20 06:11:17;;;;;;;;;32.60;27.00;;;;;2.58;72.75;101076.59;5037879;28;45256;-58
2023/01/20 06:13:43;;;;;;;;;25.75;19.50;;;;;2.22;72.92;101035.81;5019899;28;45413;-58
2023/01/20 06:16:08;;;;;;;;;31.25;30.25;;;;;2.29;73.64;101083.84;5037769;28;45418;-60
2023/01/20 06:18:34;;;;;;;;;35.75;31.00;;;;;2.30;73.39;101085.53;5037990;28;45406;-59
2023/01/20 06:20:59;;;;;;;;;24.25;23.25;;;;;2.26;72.98;101086.88;5019986;28;45487;-58
2023/01/20 06:23:25;;;;;;;;;30.50;23.50;;;;;2.20;73.53;101078.47;5036304;28;45989;-58
2023/01/20 06:26:09;;;;;;;;;35.00;29.60;;;;;2.16;73.81;101067.94;5019780;28;45424;-59
2023/01/20 06:28:34;;;;;;;;;27.80;22.00;;;;;2.25;73.76;101071.59;5037851;28;45398;-58
2023/01/20 06:31:01;;;;;;;;;28.50;26.25;;;;;2.28;73.48;101068.59;5037822;28;45343;-58
2023/01/20 06:33:26;;;;;;;;;24.80;21.80;;;;;2.24;73.08;101063.63;5019092;28;48340;-61
2023/01/20 06:35:54;;;;;;;;;33.25;29.75;;;;;2.30;73.01;101077.41;5052961;28;45397;-58
2023/01/20 06:38:20;;;;;;;;;35.80;26.20;;;;;2.26;73.86;101062.50;5002957;28;45214;-59
2023/01/20 06:40:45;;;;;;;;;38.50;28.75;;;;;1.47;73.62;100930.13;5037876;28;45434;-60
2023/01/20 06:43:10;;;;;;;;;29.00;20.75;;;;;2.35;73.45;101073.41;5019840;28;47388;-59
2023/01/20 06:45:37;;;;;;;;;29.25;22.00;;;;;2.33;73.35;101070.00;5036912;28;45414;-60
2023/01/20 06:48:03;;;;;;;;;34.40;31.00;;;;;2.34;73.21;101074.44;5037521;28;45384;-59
2023/01/20 06:50:28;;;;;;;;;29.00;23.25;;;;;2.37;73.07;101085.81;5019382;28;45496;-61
2023/01/20 06:52:54;;;;;;;;;25.50;21.00;;;;;2.19;73.21;101050.50;5019078;28;47166;-58
2023/01/20 06:55:26;;;;;;;;;27.20;23.80;;;;;2.09;72.87;101038.88;5035752;28;45376;-59
2023/01/20 06:57:53;;;;;;;;;32.60;22.20;;;;;2.41;73.11;101089.06;5036770;28;45472;-58
2023/01/20 07:00:19;;;;;;;;;31.40;23.00;;;;;2.50;72.86;101112.56;5037276;28;45918;-59
2023/01/20 07:02:44;;;;;;;;;33.00;27.40;;;;;2.36;72.83;101084.13;5036959;28;46057;-59
2023/01/20 07:05:10;;;;;;;;;30.25;23.50;;;;;2.44;72.71;101086.91;5052290;28;45426;-58
2023/01/20 07:07:35;;;;;;;;;26.00;19.25;;;;;2.50;73.03;101098.16;5052341;28;45439;-57
2023/01/20 07:10:02;;;;;;;;;31.50;26.00;;;;;2.53;73.05;101106.00;5037417;28;45355;-58
2023/01/20 07:12:27;;;;;;;;;33.60;24.80;;;;;2.55;73.10;101102.13;5018764;28;45544;-59
2023/01/20 07:14:53;;;;;;;;;31.50;25.25;;;;;2.56;73.45;101106.53;5036484;28;45513;-58
2023/01/20 07:17:18;;;;;;;;;22.75;18.75;;;;;2.61;72.88;101116.09;5052219;28;45420;-59
2023/01/20 07:19:44;;;;;;;;;33.25;24.25;;;;;2.63;72.74;101130.34;5037089;28;45415;-59
2023/01/20 07:22:09;;;;;;;;;36.00;32.50;;;;;2.67;72.94;101132.59;5036794;28;45435;-58
2023/01/20 07:24:35;;;;;;;;;32.50;25.00;;;;;2.70;72.92;101131.44;5036681;28;45271;-58
2023/01/20 07:27:00;;;;;;;;;30.00;23.25;;;;;2.47;72.95;101093.91;5036802;28;45301;-58
2023/01/20 07:29:26;;;;;;;;;27.50;24.50;;;;;2.70;72.90;101135.00;5019258;28;45470;-59
2023/01/20 07:31:51;;;;;;;;;33.00;24.25;;;;;2.73;73.16;101138.41;5036072;28;46629;-59
2023/01/20 07:34:17;;;;;;;;;37.25;27.00;;;;;2.70;72.38;101139.56;5019138;28;45486;-59
2023/01/20 07:36:43;;;;;;;;;30.00;24.75;;;;;2.75;72.36;101147.25;5036440;28;45433;-59
2023/01/20 07:39:10;;;;;;;;;27.00;24.25;;;;;2.73;72.22;101149.25;5002607;28;45499;-59
2023/01/20 07:41:35;;;;;;;;;29.60;27.00;;;;;2.75;72.25;101158.09;5035925;28;46503;-57
2023/01/20 07:44:01;;;;;;;;;34.50;27.25;;;;;2.79;72.54;101156.78;5018792;28;45458;-59
2023/01/20 07:46:26;;;;;;;;;33.75;27.25;;;;;2.81;72.27;101157.47;5036688;28;45310;-60
2023/01/20 07:48:52;;;;;;;;;15.00;10.50;;;;;2.58;71.41;101126.19;5019082;28;45237;-58
2023/01/20 07:51:17;;;;;;;;;20.75;19.25;;;;;2.84;71.92;101151.78;5035660;28;46109;-58
2023/01/20 07:53:45;;;;;;;;;29.75;23.50;;;;;2.88;71.53;101147.75;5035146;28;45405;-60
2023/01/20 07:56:17;;;;;;;;;32.80;25.20;;;;;2.90;71.01;101155.72;5035254;28;45330;-59
2023/01/20 07:58:46;;;;;;;;;30.40;21.20;;;;;2.93;70.88;101169.00;5049356;28;45631;-59
2023/01/20 08:01:19;;;;;;;;;18.00;15.80;;;;;2.69;70.49;101136.03;5033772;28;46194;-59
2023/01/20 08:03:44;;;;;;;;;20.60;16.40;;;;;2.94;70.49;101171.53;5033904;28;45447;-59
2023/01/20 08:06:11;;;;;;;;;25.50;19.50;;;;;2.77;69.82;101127.13;5036417;28;45343;-61
2023/01/20 08:08:37;;;;;;;;;28.80;23.60;;;;;2.75;69.98;101128.25;5018786;28;45924;-59
2023/01/20 08:11:02;;;;;;;;;19.75;18.50;;;;;2.87;69.77;101143.31;5035938;28;46203;-61
2023/01/20 08:13:28;;;;;;;;;16.00;11.75;;;;;3.00;69.68;101161.97;5036309;28;45743;-59
2023/01/20 08:15:54;;;;;;;;;23.00;19.00;;;;;2.98;69.56;101175.66;5036189;28;45461;-60
2023/01/20 08:18:20;;;;;;;;;26.00;22.80;;;;;3.04;69.76;101174.19;5035163;28;45415;-60
2023/01/20 08:20:46;;;;;;;;;33.25;24.00;;;;;3.02;69.40;101170.78;5034982;28;46173;-60
2023/01/20 08:23:11;;;;;;;;;27.00;23.00;;;;;2.90;69.05;101177.44;5017894;28;45721;-60
2023/01/20 08:25:37;;;;;;;;;21.50;19.00;;;;;2.97;69.52;101183.94;5036402;28;45337;-60
2023/01/20 08:28:03;;;;;;;;;27.00;23.25;;;;;2.97;69.04;101170.38;5017837;28;45557;-61
2023/01/20 08:30:28;;;;;;;;;26.00;22.80;;;;;3.01;69.56;101176.38;5031082;28;45852;-59
2023/01/20 08:32:55;;;;;;;;;15.75;15.75;;;;;3.06;69.45;101187.63;5017795;28;46503;-60
2023/01/20 08:35:20;;;;;;;;;26.40;22.60;;;;;2.87;69.20;101148.75;5018003;28;45313;-59
2023/01/20 08:37:46;;;;;;;;;19.50;16.25;;;;;3.00;68.19;101180.94;5036337;28;45535;-59
2023/01/20 08:40:12;;;;;;;;;22.00;19.50;;;;;3.05;69.48;101194.88;5017587;28;45939;-59
2023/01/20 08:42:38;;;;;;;;;24.50;18.25;;;;;2.98;68.87;101194.66;5035400;28;45464;-59
2023/01/20 08:45:05;;;;;;;;;21.75;15.00;;;;;3.03;69.68;101204.22;5034498;28;45365;-59
2023/01/20 08:47:30;;;;;;;;;23.60;22.40;;;;;3.02;69.08;101197.91;5035759;28;45818;-60
2023/01/20 08:49:56;;;;;;;;;25.00;23.00;;;;;2.91;69.48;101192.69;5035878;28;46286;-60
2023/01/20 08:52:21;;;;;;;;;20.25;19.25;;;;;2.90;69.02;101191.84;5050564;28;45423;-59
2023/01/20 08:54:49;;;;;;;;;24.75;21.75;;;;;2.84;69.81;101185.16;5035845;28;45360;-59
2023/01/20 08:57:15;;;;;;;;;28.60;24.00;;;;;2.99;69.37;101195.53;5034225;28;45311;-60
2023/01/20 08:59:43;;;;;;;;;30.75;20.75;;;;;3.02;69.86;101195.22;5035731;28;46802;-60
2023/01/20 09:02:09;;;;;;;;;21.20;17.80;;;;;3.08;69.54;101199.16;5035200;28;45457;-60
2023/01/20 09:04:38;;;;;;;;;20.60;20.60;;;;;3.07;69.28;101209.19;5035543;28;45344;-59
2023/01/20 09:07:04;;;;;;;;;27.20;18.00;;;;;3.05;70.30;101203.03;5035463;28;45204;-59
2023/01/20 09:09:30;;;;;;;;;20.00;18.00;;;;;3.00;70.52;101201.78;5017645;28;45286;-59
2023/01/20 09:11:55;;;;;;;;;18.20;15.60;;;;;3.05;70.76;101208.44;5017819;28;45239;-60
2023/01/20 09:14:23;;;;;;;;;20.50;16.50;;;;;2.92;71.44;101197.09;5035362;28;45488;-58
2023/01/20 09:16:49;;;;;;;;;18.80;18.20;;;;;3.17;71.38;101216.41;5017855;28;45279;-60
2023/01/20 09:19:15;;;;;;;;;19.75;15.75;;;;;3.15;70.62;101213.00;5033363;28;45766;-61
2023/01/20 09:21:41;;;;;;;;;13.75;13.75;;;;;3.20;69.91;101229.66;5032815;28;45445;-61
2023/01/20 09:24:07;;;;;;;;;14.80;14.20;;;;;3.28;70.00;101231.59;5009197;28;45531;-63
2023/01/20 09:26:37;;;;;;;;;18.25;15.50;;;;;3.34;69.50;101233.72;5045702;28;45381;-62
2023/01/20 09:29:08;;;;;;;;;12.20;12.20;;;;;3.37;69.59;101231.53;5031232;28;46393;-63
2023/01/20 09:31:39;;;;;;;;;16.60;16.20;;;;;3.15;69.81;101192.13;4991825;28;45926;-62
2023/01/20 09:34:04;;;;;;;;;17.00;14.00;;;;;3.45;69.72;101238.06;5025771;28;45469;-61
2023/01/20 09:36:30;;;;;;;;;18.00;16.50;;;;;3.43;69.48;101229.25;5047567;28;45858;-62
2023/01/20 09:44:24;;;;;;;;;16.80;16.80;;;;;3.59;70.03;101236.69;5016162;28;45944;-60
2023/01/20 09:47:20;;;;;;;;;17.25;16.25;;;;;3.61;69.35;101240.09;5032768;28;45497;-59
2023/01/20 09:53:04;;;;;;;;;17.00;15.60;;;;;3.49;70.63;101243.06;5063200;28;47183;-61
2023/01/20 09:55:31;;;;;;;;;13.40;12.20;;;;;3.59;70.78;101251.16;5056958;28;45425;-59
2023/01/20 09:58:19;;;;;;;;;18.00;16.20;;;;;3.65;70.46;101247.81;5073843;28;45598;-59
2023/01/20 10:00:58;;;;;;;;;8.40;8.40;;;;;3.77;70.20;101258.44;5072582;28;46779;-59
2023/01/20 10:03:29;;;;;;;;;16.20;12.00;;;;;3.72;70.70;101245.31;5072446;28;45460;-59
2023/01/20 10:05:55;;;;;;;;;16.60;13.60;;;;;3.62;70.47;101228.25;5053571;28;45540;-59
2023/01/20 10:08:30;;;;;;;;;11.40;9.20;;;;;3.89;70.78;101265.34;5072819;28;45451;-58
2023/01/20 10:10:57;;;;;;;;;11.00;9.20;;;;;3.80;70.91;101255.41;5038568;28;48360;-58
2023/01/20 10:13:55;;;;;;;;;11.20;9.80;;;;;3.74;71.42;101253.31;5089235;27;45412;-59
2023/01/20 10:16:31;;;;;;;;;13.60;10.60;;;;;3.78;72.20;101263.72;5072717;28;45319;-58
2023/01/20 10:19:00;;;;;;;;;17.80;12.00;;;;;3.52;72.16;101220.16;5058684;28;45709;-59
2023/01/20 10:21:39;;;;;;;;;13.00;9.40;;;;;3.69;72.94;101253.78;5034979;28;46498;-60
2023/01/20 10:24:17;;;;;;;;;11.00;11.00;;;;;3.78;72.81;101255.56;5051676;28;45350;-59
2023/01/20 10:26:51;;;;;;;;;13.40;9.20;;;;;3.59;72.74;101226.72;5051920;28;45397;-60
2023/01/20 10:29:21;;;;;;;;;15.40;9.40;;;;;3.88;72.38;101260.94;5049915;27;45508;-61
2023/01/20 10:32:00;;;;;;;;;11.20;10.20;;;;;3.81;71.83;101243.56;5022194;28;45381;-60
2023/01/20 10:34:33;;;;;;;;;12.80;6.40;;;;;3.48;71.57;101197.06;5053146;28;45527;-60
2023/01/20 10:37:09;;;;;;;;;8.80;8.20;;;;;3.75;72.33;101238.72;5035499;28;45425;-58
2023/01/20 10:40:00;;;;;;;;;9.00;7.60;;;;;4.06;71.43;101269.06;5053415;28;45239;-58
2023/01/20 10:42:27;;;;;;;;;11.80;10.80;;;;;4.14;71.29;101270.16;5032625;28;47304;-62
2023/01/20 10:44:53;;;;;;;;;11.60;10.20;;;;;4.17;69.99;101267.97;5073015;28;45628;-60
2023/01/20 10:47:38;;;;;;;;;14.50;10.25;;;;;4.20;70.30;101254.09;5075040;28;45408;-57
2023/01/20 10:50:29;;;;;;;;;12.00;8.40;;;;;4.38;69.68;101272.22;5065590;27;45445;-58
2023/01/20 10:53:30;;;;;;;;;11.60;10.60;;;;;4.37;69.04;101269.66;5035389;28;45949;-60
2023/01/20 10:55:59;;;;;;;;;10.80;9.80;;;;;4.25;68.18;101260.88;5033357;28;45415;-61
2023/01/20 10:58:30;;;;;;;;;15.60;14.40;;;;;4.31;68.62;101268.41;5035266;28;45400;-59
2023/01/20 11:00:57;;;;;;;;;12.80;9.60;;;;;4.37;68.71;101251.47;5049388;28;45881;-59
2023/01/20 11:03:23;;;;;;;;;9.00;9.00;;;;;4.27;67.43;101220.84;5038576;28;45702;-61
2023/01/20 11:05:49;;;;;;;;;9.75;8.00;;;;;4.56;66.85;101269.47;5005123;28;45541;-62
2023/01/20 11:08:21;;;;;;;;;11.80;10.20;;;;;4.56;68.11;101260.44;4989010;28;45731;-64
2023/01/20 11:10:48;;;;;;;;;9.00;8.00;;;;;4.51;67.47;101247.34;5041998;28;45458;-66
2023/01/20 11:13:14;;;;;;;;;10.20;10.20;;;;;4.79;67.37;101251.78;5048400;28;47280;-63
2023/01/20 11:15:43;;;;;;;;;13.50;11.00;;;;;4.96;66.33;101256.25;5033267;28;45673;-62
2023/01/20 11:18:15;;;;;;;;;14.20;12.40;;;;;4.91;65.17;101253.16;5051446;28;46523;-65
2023/01/20 11:20:48;;;;;;;;;15.20;13.00;;;;;4.85;65.43;101241.09;5037526;28;45518;-63
2023/01/20 11:23:46;;;;;;;;;12.20;10.40;;;;;5.01;66.04;101259.34;5066990;28;45558;-66
2023/01/20 11:26:30;;;;;;;;;14.60;12.20;;;;;5.12;64.71;101254.66;5065876;28;45790;-64
2023/01/20 11:28:56;;;;;;;;;9.00;9.00;;;;;4.63;64.57;101149.19;5038655;28;45824;-66
2023/01/20 11:31:53;;;;;;;;;9.40;8.60;;;;;5.13;64.33;101224.53;5024159;28;45732;-63
2023/01/20 11:34:24;;;;;;;;;9.80;9.00;;;;;5.14;64.74;101219.97;5033660;28;45532;-60